Terminal Aerodrome Forecast
Issued by NWS

Home | Current Version | Previous Version | Text Only | Print | Product List | Glossary On
Versions: 1 2 3 4 5 6 7 8 9 10 11 12 13 14 15 16 17 18 19 20 21 22 23
474
FTUS43 KICT 290711 AAA
TAFSLN
TAF AMD
KSLN 290711Z 2907/3006 03015G25KT 5SM SHRA VCTS SCT008 BKN030CB
      TEMPO 2907/2910 2SM +SHRA BKN008 OVC015
     FM291000 04020G29KT 5SM SHRA VCTS OVC012CB
      TEMPO 2910/2913 2SM +SHRA OVC006
     FM291600 05015G23KT 5SM -SHRA BR OVC015
     FM300000 02015G24KT 5SM -SHRA BR OVC015=

USA.gov is the U.S. government's official web portal to all federal, state and local government web resources and services.